sensor_id;sensor_type;location;lat;lon;timestamp;P1;P2;P0
45112;PMS5003;30873;53.908;27.576;2023-08-21T00:01:02;29.9;27.8;18.3
45112;PMS5003;30873;53.908;27.576;2023-08-21T00:05:34;29.7;28.3;18.5
45112;PMS5003;30873;53.908;27.576;2023-08-21T00:10:24;30.7;28;18.7
45112;PMS5003;30873;53.908;27.576;2023-08-21T00:16:04;30.9;28.3;18.8
45112;PMS5003;30873;53.908;27.576;2023-08-21T00:20:50;31.6;28.3;17.8
45112;PMS5003;30873;53.908;27.576;2023-08-21T00:26:06;31.6;28.3;17.8
45112;PMS5003;30873;53.908;27.576;2023-08-21T00:31:06;30;27.1;17.4
45112;PMS5003;30873;53.908;27.576;2023-08-21T00:36:04;29.4;27.5;17.4
45112;PMS5003;30873;53.908;27.576;2023-08-21T00:40:24;30.9;27.8;18.4
45112;PMS5003;30873;53.908;27.576;2023-08-21T00:45:28;30.8;27.7;17.9
45112;PMS5003;30873;53.908;27.576;2023-08-21T00:50:44;29.4;27;17.9
45112;PMS5003;30873;53.908;27.576;2023-08-21T00:55:50;31.7;28.2;17.9
45112;PMS5003;30873;53.908;27.576;2023-08-21T01:00:42;30.1;27.9;18.4
45112;PMS5003;30873;53.908;27.576;2023-08-21T01:05:40;30.6;27.7;18
45112;PMS5003;30873;53.908;27.576;2023-08-21T01:10:45;30.7;28.4;18
45112;PMS5003;30873;53.908;27.576;2023-08-21T01:15:28;30.2;28.7;18.6
45112;PMS5003;30873;53.908;27.576;2023-08-21T01:20:34;31;27.9;17.7
45112;PMS5003;30873;53.908;27.576;2023-08-21T01:26:06;30.1;27.3;17.8
45112;PMS5003;30873;53.908;27.576;2023-08-21T01:30:50;30.7;28.3;18.2
45112;PMS5003;30873;53.908;27.576;2023-08-21T01:36:04;31.1;28.3;18.2
45112;PMS5003;30873;53.908;27.576;2023-08-21T01:40:48;30.4;28;17.7
45112;PMS5003;30873;53.908;27.576;2023-08-21T01:45:40;31.9;29.2;18.2
45112;PMS5003;30873;53.908;27.576;2023-08-21T01:50:42;29.9;27.2;16.9
45112;PMS5003;30873;53.908;27.576;2023-08-21T01:55:30;29.9;27.3;17
45112;PMS5003;30873;53.908;27.576;2023-08-21T02:00:28;29.7;26.7;16.8
45112;PMS5003;30873;53.908;27.576;2023-08-21T02:06:04;29;26.4;17
45112;PMS5003;30873;53.908;27.576;2023-08-21T02:11:04;29.6;27.1;16.9
45112;PMS5003;30873;53.908;27.576;2023-08-21T02:15:40;29.4;27.9;17.4
45112;PMS5003;30873;53.908;27.576;2023-08-21T02:20:38;29.5;27.4;17.4
45112;PMS5003;30873;53.908;27.576;2023-08-21T02:26:02;31.7;29.2;18.3
45112;PMS5003;30873;53.908;27.576;2023-08-21T02:30:32;34.4;30.5;19
45112;PMS5003;30873;53.908;27.576;2023-08-21T02:35:50;32.7;28.7;18.5
45112;PMS5003;30873;53.908;27.576;2023-08-21T02:40:56;32.9;29.7;18.2
45112;PMS5003;30873;53.908;27.576;2023-08-21T02:45:56;33.5;30.2;18.7
45112;PMS5003;30873;53.908;27.576;2023-08-21T02:50:34;34.2;30.4;19.5
45112;PMS5003;30873;53.908;27.576;2023-08-21T02:55:42;35.4;31.4;20.6
45112;PMS5003;30873;53.908;27.576;2023-08-21T03:01:06;35.3;31.3;20.4
45112;PMS5003;30873;53.908;27.576;2023-08-21T03:06:06;33.5;31.1;19.2
45112;PMS5003;30873;53.908;27.576;2023-08-21T03:10:42;32.8;29.3;17.7
45112;PMS5003;30873;53.908;27.576;2023-08-21T03:15:40;30.6;27.7;17.8
45112;PMS5003;30873;53.908;27.576;2023-08-21T03:20:50;30.1;26.9;16.7
45112;PMS5003;30873;53.908;27.576;2023-08-21T03:25:28;29.4;26.5;17.2
45112;PMS5003;30873;53.908;27.576;2023-08-21T03:30:58;30.2;27.4;17.2
45112;PMS5003;30873;53.908;27.576;2023-08-21T03:35:53;29.9;27.1;17.3
45112;PMS5003;30873;53.908;27.576;2023-08-21T03:40:56;31.8;28.4;17.8
45112;PMS5003;30873;53.908;27.576;2023-08-21T03:45:58;30.6;27.1;17.8
45112;PMS5003;30873;53.908;27.576;2023-08-21T03:50:46;31;27.6;17
45112;PMS5003;30873;53.908;27.576;2023-08-21T03:55:24;28.6;26.2;17
45112;PMS5003;30873;53.908;27.576;2023-08-21T04:00:38;29.9;27.9;16.9
45112;PMS5003;30873;53.908;27.576;2023-08-21T04:06:04;29.9;26.2;16.5
45112;PMS5003;30873;53.908;27.576;2023-08-21T04:10:24;32.8;29.7;19.2
45112;PMS5003;30873;53.908;27.576;2023-08-21T04:16:06;33.4;29.9;19
45112;PMS5003;30873;53.908;27.576;2023-08-21T04:21:04;34.7;29.6;18.4
45112;PMS5003;30873;53.908;27.576;2023-08-21T04:25:48;35.4;31.8;20.3
45112;PMS5003;30873;53.908;27.576;2023-08-21T04:30:24;33.7;31;19.7
45112;PMS5003;30873;53.908;27.576;2023-08-21T04:35:28;33.9;30.5;19.4
45112;PMS5003;30873;53.908;27.576;2023-08-21T04:41:05;33.5;31.4;20
45112;PMS5003;30873;53.908;27.576;2023-08-21T04:45:52;35.9;32.4;20.4
45112;PMS5003;30873;53.908;27.576;2023-08-21T04:50:56;35.7;31.3;20
45112;PMS5003;30873;53.908;27.576;2023-08-21T04:56:04;35.6;32.4;21
45112;PMS5003;30873;53.908;27.576;2023-08-21T05:01:04;37.3;33;21.1
45112;PMS5003;30873;53.908;27.576;2023-08-21T05:05:24;38.2;33.8;21.7
45112;PMS5003;30873;53.908;27.576;2023-08-21T05:10:34;36.6;32.3;21.1
45112;PMS5003;30873;53.908;27.576;2023-08-21T05:15:51;34.8;32.1;20.6
45112;PMS5003;30873;53.908;27.576;2023-08-21T05:20:50;37.7;33;20.9
45112;PMS5003;30873;53.908;27.576;2023-08-21T05:25:42;41.1;35.6;22.8
45112;PMS5003;30873;53.908;27.576;2023-08-21T05:30:24;38.6;34.4;22.5
45112;PMS5003;30873;53.908;27.576;2023-08-21T05:35:38;40;34.8;22.8
45112;PMS5003;30873;53.908;27.576;2023-08-21T05:40:24;41.7;35.3;22.8
45112;PMS5003;30873;53.908;27.576;2023-08-21T05:45:34;39.4;34;21.7
45112;PMS5003;30873;53.908;27.576;2023-08-21T05:51:04;37.3;32.4;21.2
45112;PMS5003;30873;53.908;27.576;2023-08-21T05:55:50;40.4;34.8;22.3
45112;PMS5003;30873;53.908;27.576;2023-08-21T06:01:04;37.9;32.9;21.7
45112;PMS5003;30873;53.908;27.576;2023-08-21T06:05:40;39.7;34.2;22.2
45112;PMS5003;30873;53.908;27.576;2023-08-21T06:10:24;41.9;34.9;22.9
45112;PMS5003;30873;53.908;27.576;2023-08-21T06:15:42;38.6;33.7;22.1
45112;PMS5003;30873;53.908;27.576;2023-08-21T06:20:52;38.4;33.4;22.3
45112;PMS5003;30873;53.908;27.576;2023-08-21T06:25:42;40.6;34.4;21.2
45112;PMS5003;30873;53.908;27.576;2023-08-21T06:30:56;39.2;33.8;21.5
45112;PMS5003;30873;53.908;27.576;2023-08-21T06:36:02;38.7;33.4;21.8
45112;PMS5003;30873;53.908;27.576;2023-08-21T06:40:40;37.7;32.7;20.6
45112;PMS5003;30873;53.908;27.576;2023-08-21T06:45:24;36.2;31.9;20.3
45112;PMS5003;30873;53.908;27.576;2023-08-21T06:51:02;36;31.7;20.8
45112;PMS5003;30873;53.908;27.576;2023-08-21T06:56:04;38;32.9;21.4
45112;PMS5003;30873;53.908;27.576;2023-08-21T07:00:24;44.2;37.1;23.8
45112;PMS5003;30873;53.908;27.576;2023-08-21T07:05:56;47.6;39.8;24.7
45112;PMS5003;30873;53.908;27.576;2023-08-21T07:10:56;47.8;38.7;24.1
45112;PMS5003;30873;53.908;27.576;2023-08-21T07:15:30;50.4;41.2;25.6
45112;PMS5003;30873;53.908;27.576;2023-08-21T07:20:28;49.7;40.9;26
45112;PMS5003;30873;53.908;27.576;2023-08-21T07:25:26;47.8;39.4;24.5
45112;PMS5003;30873;53.908;27.576;2023-08-21T07:30:56;43.5;36.3;23.4
45112;PMS5003;30873;53.908;27.576;2023-08-21T07:36:04;42;34.6;22.7
45112;PMS5003;30873;53.908;27.576;2023-08-21T07:40:24;42.1;35.3;22.7
45112;PMS5003;30873;53.908;27.576;2023-08-21T07:46:04;39.3;33.8;23.1
45112;PMS5003;30873;53.908;27.576;2023-08-21T07:50:24;37.2;33.3;22
45112;PMS5003;30873;53.908;27.576;2023-08-21T07:56:04;35.9;31.1;20.8
45112;PMS5003;30873;53.908;27.576;2023-08-21T08:01:02;35;30.8;20.8
45112;PMS5003;30873;53.908;27.576;2023-08-21T08:05:56;33.1;30.4;20.2
45112;PMS5003;30873;53.908;27.576;2023-08-21T08:10:48;29.3;27.7;19.3
45112;PMS5003;30873;53.908;27.576;2023-08-21T08:16:03;28.4;26.7;18.9
45112;PMS5003;30873;53.908;27.576;2023-08-21T08:20:56;30.3;28.3;18.9
45112;PMS5003;30873;53.908;27.576;2023-08-21T08:25:40;32.2;30.3;20.6
45112;PMS5003;30873;53.908;27.576;2023-08-21T08:31:02;31.4;28.2;19.5
45112;PMS5003;30873;53.908;27.576;2023-08-21T08:35:34;36;31.9;21.9
45112;PMS5003;30873;53.908;27.576;2023-08-21T08:41:05;39.3;34.5;24.9
45112;PMS5003;30873;53.908;27.576;2023-08-21T08:46:02;29.9;27.8;18.9
45112;PMS5003;30873;53.908;27.576;2023-08-21T08:50:46;26.1;24.9;17.5
45112;PMS5003;30873;53.908;27.576;2023-08-21T08:55:25;26.4;24.6;17.7
45112;PMS5003;30873;53.908;27.576;2023-08-21T09:00:28;24.8;24.4;17
45112;PMS5003;30873;53.908;27.576;2023-08-21T09:06:04;24;22.9;16.9
45112;PMS5003;30873;53.908;27.576;2023-08-21T09:10:44;26.4;25.3;17.3
45112;PMS5003;30873;53.908;27.576;2023-08-21T09:15:40;26.5;25.4;17.5
45112;PMS5003;30873;53.908;27.576;2023-08-21T09:21:02;25.3;23.9;17.4
45112;PMS5003;30873;53.908;27.576;2023-08-21T09:26:02;25.7;24.7;17.6
45112;PMS5003;30873;53.908;27.576;2023-08-21T09:30:43;27.6;26.1;18.2
45112;PMS5003;30873;53.908;27.576;2023-08-21T09:35:34;26.9;25.7;17.8
45112;PMS5003;30873;53.908;27.576;2023-08-21T09:40:32;27.7;26.3;18.4
45112;PMS5003;30873;53.908;27.576;2023-08-21T09:46:04;25.6;23.7;17.3
45112;PMS5003;30873;53.908;27.576;2023-08-21T09:50:40;24.7;23.4;16.7
45112;PMS5003;30873;53.908;27.576;2023-08-21T09:55:36;23.6;22.6;16.4
45112;PMS5003;30873;53.908;27.576;2023-08-21T10:00:25;25.8;24.1;17.8
45112;PMS5003;30873;53.908;27.576;2023-08-21T10:06:02;26;24.7;17.2
45112;PMS5003;30873;53.908;27.576;2023-08-21T10:10:48;24.7;23.5;16.6
45112;PMS5003;30873;53.908;27.576;2023-08-21T10:16:02;25.7;24.8;17.2
45112;PMS5003;30873;53.908;27.576;2023-08-21T10:20:38;30.5;29.1;21.5
45112;PMS5003;30873;53.908;27.576;2023-08-21T10:26:05;27.4;26.3;18.8
45112;PMS5003;30873;53.908;27.576;2023-08-21T10:30:36;29;25.9;18.4
45112;PMS5003;30873;53.908;27.576;2023-08-21T10:35:24;29.7;26.8;19
45112;PMS5003;30873;53.908;27.576;2023-08-21T10:40:28;26.3;25.2;18.9
45112;PMS5003;30873;53.908;27.576;2023-08-21T10:45:34;26.1;24.4;18.1
45112;PMS5003;30873;53.908;27.576;2023-08-21T10:50:54;25.7;24.5;17.2
45112;PMS5003;30873;53.908;27.576;2023-08-21T10:55:54;26.1;24;17.2
45112;PMS5003;30873;53.908;27.576;2023-08-21T11:01:03;23.8;22.5;16.1
45112;PMS5003;30873;53.908;27.576;2023-08-21T11:05:40;21;20.4;15.2
45112;PMS5003;30873;53.908;27.576;2023-08-21T11:10:30;19.3;18.7;13.8
45112;PMS5003;30873;53.908;27.576;2023-08-21T11:16:03;19.2;18.8;14
45112;PMS5003;30873;53.908;27.576;2023-08-21T11:21:04;19.4;18.4;13.5
45112;PMS5003;30873;53.908;27.576;2023-08-21T11:25:38;19;18;13
45112;PMS5003;30873;53.908;27.576;2023-08-21T11:30:40;19.2;18.8;13.4
45112;PMS5003;30873;53.908;27.576;2023-08-21T11:36:02;17.2;16.8;12.3
45112;PMS5003;30873;53.908;27.576;2023-08-21T11:40:24;15.7;15.3;11.5
45112;PMS5003;30873;53.908;27.576;2023-08-21T11:45:28;18.4;16.9;12.3
45112;PMS5003;30873;53.908;27.576;2023-08-21T11:50:48;16.6;15.2;11.1
45112;PMS5003;30873;53.908;27.576;2023-08-21T11:55:42;15.7;15.2;11.3
45112;PMS5003;30873;53.908;27.576;2023-08-21T12:01:04;16.9;16.1;12.4
45112;PMS5003;30873;53.908;27.576;2023-08-21T12:05:42;16.8;16.5;12.1
45112;PMS5003;30873;53.908;27.576;2023-08-21T12:11:02;16.9;15.9;12.2
45112;PMS5003;30873;53.908;27.576;2023-08-21T12:15:32;16.6;16.5;12.4
45112;PMS5003;30873;53.908;27.576;2023-08-21T12:21:02;15.5;14.5;11
45112;PMS5003;30873;53.908;27.576;2023-08-21T12:25:48;14.1;13.4;9.6
45112;PMS5003;30873;53.908;27.576;2023-08-21T12:30:42;14.6;14.1;9.8
45112;PMS5003;30873;53.908;27.576;2023-08-21T12:35:44;16.3;15.7;11.3
45112;PMS5003;30873;53.908;27.576;2023-08-21T12:40:48;13;12.6;10
45112;PMS5003;30873;53.908;27.576;2023-08-21T12:45:40;13.5;13.2;10.3
45112;PMS5003;30873;53.908;27.576;2023-08-21T12:50:24;14.6;13.9;10
45112;PMS5003;30873;53.908;27.576;2023-08-21T12:56:02;14.9;14.1;10.7
45112;PMS5003;30873;53.908;27.576;2023-08-21T13:00:48;13.7;13;9.7
45112;PMS5003;30873;53.908;27.576;2023-08-21T13:06:02;16.3;14.7;11.2
45112;PMS5003;30873;53.908;27.576;2023-08-21T13:11:02;15.2;14.4;10.8
45112;PMS5003;30873;53.908;27.576;2023-08-21T13:15:48;14.7;13.8;10.5
45112;PMS5003;30873;53.908;27.576;2023-08-21T13:20:24;15.2;14.4;10.6
45112;PMS5003;30873;53.908;27.576;2023-08-21T13:25:24;12.8;12.4;9
45112;PMS5003;30873;53.908;27.576;2023-08-21T13:31:02;14.8;14.1;10.5
45112;PMS5003;30873;53.908;27.576;2023-08-21T13:35:26;14.4;14;10.8
45112;PMS5003;30873;53.908;27.576;2023-08-21T13:40:40;14.9;13.9;10.3
45112;PMS5003;30873;53.908;27.576;2023-08-21T13:46:02;12.3;11.5;8.9
45112;PMS5003;30873;53.908;27.576;2023-08-21T13:50:40;13.6;12.7;9.6
45112;PMS5003;30873;53.908;27.576;2023-08-21T13:55:24;13.1;12.2;9.2
45112;PMS5003;30873;53.908;27.576;2023-08-21T14:00:50;11.9;11.3;8.7
45112;PMS5003;30873;53.908;27.576;2023-08-21T14:05:52;13.2;12.6;9.4
45112;PMS5003;30873;53.908;27.576;2023-08-21T14:10:48;13.7;13.1;9.7
45112;PMS5003;30873;53.908;27.576;2023-08-21T14:15:24;11.5;10.9;7.9
45112;PMS5003;30873;53.908;27.576;2023-08-21T14:20:40;14.3;13.5;10.2
45112;PMS5003;30873;53.908;27.576;2023-08-21T14:25:24;14.4;13.9;10.4
45112;PMS5003;30873;53.908;27.576;2023-08-21T14:30:38;14.4;13.5;10.4
45112;PMS5003;30873;53.908;27.576;2023-08-21T14:35:42;14.1;13.6;10.3
45112;PMS5003;30873;53.908;27.576;2023-08-21T14:41:02;15.1;14.4;10.4
45112;PMS5003;30873;53.908;27.576;2023-08-21T14:45:26;14.7;13.9;10
45112;PMS5003;30873;53.908;27.576;2023-08-21T14:51:04;14.6;13.2;10.2
45112;PMS5003;30873;53.908;27.576;2023-08-21T14:55:40;14.2;13.2;10
45112;PMS5003;30873;53.908;27.576;2023-08-21T15:00:36;16.5;16.2;11.8
45112;PMS5003;30873;53.908;27.576;2023-08-21T15:05:24;13.7;12.9;9.5
45112;PMS5003;30873;53.908;27.576;2023-08-21T15:10:30;13.3;12.8;9.6
45112;PMS5003;30873;53.908;27.576;2023-08-21T15:15:40;14.7;14.1;10.2
45112;PMS5003;30873;53.908;27.576;2023-08-21T15:20:52;16.1;15.1;11.3
45112;PMS5003;30873;53.908;27.576;2023-08-21T15:26:02;15.9;15.1;11.6
45112;PMS5003;30873;53.908;27.576;2023-08-21T15:30:36;17.8;16.7;11.7
45112;PMS5003;30873;53.908;27.576;2023-08-21T15:35:28;18.2;17.6;12.9
45112;PMS5003;30873;53.908;27.576;2023-08-21T15:41:02;25.2;23.5;17.9
45112;PMS5003;30873;53.908;27.576;2023-08-21T15:46:02;17.1;15.9;11.7
45112;PMS5003;30873;53.908;27.576;2023-08-21T15:50:40;17.7;17.1;12
45112;PMS5003;30873;53.908;27.576;2023-08-21T15:55:36;18.1;16.3;11.4
45112;PMS5003;30873;53.908;27.576;2023-08-21T16:01:04;17.5;16.1;11.3
45112;PMS5003;30873;53.908;27.576;2023-08-21T16:05:24;18.2;17.2;12
45112;PMS5003;30873;53.908;27.576;2023-08-21T16:10:24;19.5;18.1;12
45112;PMS5003;30873;53.908;27.576;2023-08-21T16:15:48;18.9;17.4;12.4
45112;PMS5003;30873;53.908;27.576;2023-08-21T16:20:54;20;18.6;12.6
45112;PMS5003;30873;53.908;27.576;2023-08-21T16:26:02;20.8;19.9;12.8
45112;PMS5003;30873;53.908;27.576;2023-08-21T16:30:40;20;19.1;12.9
45112;PMS5003;30873;53.908;27.576;2023-08-21T16:36:02;21.2;20;13.6
45112;PMS5003;30873;53.908;27.576;2023-08-21T16:41:02;21.8;19.9;13.2
45112;PMS5003;30873;53.908;27.576;2023-08-21T16:45:50;21.9;20.1;13.4
45112;PMS5003;30873;53.908;27.576;2023-08-21T16:50:48;21.6;20.7;13.7
45112;PMS5003;30873;53.908;27.576;2023-08-21T16:55:56;22.2;20.5;12.9
45112;PMS5003;30873;53.908;27.576;2023-08-21T17:00:48;22.1;20.1;13.1
45112;PMS5003;30873;53.908;27.576;2023-08-21T17:05:48;20.8;19.2;13.1
45112;PMS5003;30873;53.908;27.576;2023-08-21T17:10:24;21.7;20.1;12.7
45112;PMS5003;30873;53.908;27.576;2023-08-21T17:15:24;20.4;19;12.6
45112;PMS5003;30873;53.908;27.576;2023-08-21T17:21:04;21.6;20;13.5
45112;PMS5003;30873;53.908;27.576;2023-08-21T17:25:50;21.6;20.6;13.3
45112;PMS5003;30873;53.908;27.576;2023-08-21T17:31:02;23.3;20.8;13.1
45112;PMS5003;30873;53.908;27.576;2023-08-21T17:36:02;22;20.1;12.7
45112;PMS5003;30873;53.908;27.576;2023-08-21T17:40:48;23.2;21.2;13.4
45112;PMS5003;30873;53.908;27.576;2023-08-21T17:45:28;23.7;21.2;12.8
45112;PMS5003;30873;53.908;27.576;2023-08-21T17:50:24;21;18.7;12
45112;PMS5003;30873;53.908;27.576;2023-08-21T17:56:00;21.6;19.4;11.8
45112;PMS5003;30873;53.908;27.576;2023-08-21T18:00:48;20.8;18.2;11.8
45112;PMS5003;30873;53.908;27.576;2023-08-21T18:05:36;19.3;18.1;10.8
45112;PMS5003;30873;53.908;27.576;2023-08-21T18:11:02;21.2;20;12.1
45112;PMS5003;30873;53.908;27.576;2023-08-21T18:15:48;21;18.9;11.9
45112;PMS5003;30873;53.908;27.576;2023-08-21T18:20:50;19.7;18.2;11.2
45112;PMS5003;30873;53.908;27.576;2023-08-21T18:25:34;19.6;17.6;10.9
45112;PMS5003;30873;53.908;27.576;2023-08-21T18:30:48;20.1;18.3;11.9
45112;PMS5003;30873;53.908;27.576;2023-08-21T18:35:49;20.2;19;12.1
45112;PMS5003;30873;53.908;27.576;2023-08-21T18:40:24;18.7;16.8;10.4
45112;PMS5003;30873;53.908;27.576;2023-08-21T18:45:24;18.5;16.5;10.2
45112;PMS5003;30873;53.908;27.576;2023-08-21T18:50:41;17.3;15.4;9.7
45112;PMS5003;30873;53.908;27.576;2023-08-21T18:55:30;18;16.2;9.7
45112;PMS5003;30873;53.908;27.576;2023-08-21T19:00:24;17.5;15.8;9.9
45112;PMS5003;30873;53.908;27.576;2023-08-21T19:06:02;16.4;15.5;9.6
45112;PMS5003;30873;53.908;27.576;2023-08-21T19:10:49;15.7;13.7;8.5
45112;PMS5003;30873;53.908;27.576;2023-08-21T19:16:03;15.7;14.6;9.1
45112;PMS5003;30873;53.908;27.576;2023-08-21T19:20:36;13.9;12.6;8.2
45112;PMS5003;30873;53.908;27.576;2023-08-21T19:25:48;14.4;13.4;8.8
45112;PMS5003;30873;53.908;27.576;2023-08-21T19:30:24;15.5;14.6;8.7
45112;PMS5003;30873;53.908;27.576;2023-08-21T19:35:34;15.3;13.4;8.3
45112;PMS5003;30873;53.908;27.576;2023-08-21T19:40:40;13;12.4;7.8
45112;PMS5003;30873;53.908;27.576;2023-08-21T19:45:56;15.1;13.6;8.4
45112;PMS5003;30873;53.908;27.576;2023-08-21T19:50:56;13.9;12.9;8
45112;PMS5003;30873;53.908;27.576;2023-08-21T19:55:30;14.1;12.3;7.3
45112;PMS5003;30873;53.908;27.576;2023-08-21T20:00:24;14.3;12;7.6
45112;PMS5003;30873;53.908;27.576;2023-08-21T20:06:03;13.8;13;8.1
45112;PMS5003;30873;53.908;27.576;2023-08-21T20:11:06;15;12.7;7.5
45112;PMS5003;30873;53.908;27.576;2023-08-21T20:15:38;13.4;12.1;7.6
45112;PMS5003;30873;53.908;27.576;2023-08-21T20:20:42;14.5;13.1;7.6
45112;PMS5003;30873;53.908;27.576;2023-08-21T20:26:02;14.6;12.9;7.8
45112;PMS5003;30873;53.908;27.576;2023-08-21T20:30:42;13.3;11.9;7.4
45112;PMS5003;30873;53.908;27.576;2023-08-21T20:35:24;12.5;10.9;6.3
45112;PMS5003;30873;53.908;27.576;2023-08-21T20:40:48;9.9;9;6.1
45112;PMS5003;30873;53.908;27.576;2023-08-21T20:45:59;10.6;10;5.7
45112;PMS5003;30873;53.908;27.576;2023-08-21T20:50:48;8.8;8.4;5.3
45112;PMS5003;30873;53.908;27.576;2023-08-21T20:55:38;8.5;8;4.9
45112;PMS5003;30873;53.908;27.576;2023-08-21T21:01:02;7.6;7.1;4.3
45112;PMS5003;30873;53.908;27.576;2023-08-21T21:05:28;7.3;6.8;4.1
45112;PMS5003;30873;53.908;27.576;2023-08-21T21:11:04;6.8;6.5;4
45112;PMS5003;30873;53.908;27.576;2023-08-21T21:15:50;7;6.6;4.4
45112;PMS5003;30873;53.908;27.576;2023-08-21T21:20:54;6.4;5.9;3.6
45112;PMS5003;30873;53.908;27.576;2023-08-21T21:25:48;5.9;5.1;3.1
45112;PMS5003;30873;53.908;27.576;2023-08-21T21:30:54;5.8;5;3.2
45112;PMS5003;30873;53.908;27.576;2023-08-21T21:35:24;5.8;5.3;4
45112;PMS5003;30873;53.908;27.576;2023-08-21T21:40:44;12.8;12.4;10.7
45112;PMS5003;30873;53.908;27.576;2023-08-21T21:46:08;10.2;8.9;6.8
45112;PMS5003;30873;53.908;27.576;2023-08-21T21:50:48;9.4;8.4;6.7
45112;PMS5003;30873;53.908;27.576;2023-08-21T21:56:02;31.2;28.7;24
45112;PMS5003;30873;53.908;27.576;2023-08-21T22:01:04;19.7;19;16.5
45112;PMS5003;30873;53.908;27.576;2023-08-21T22:05:48;5;4.3;2.7
45112;PMS5003;30873;53.908;27.576;2023-08-21T22:10:24;4.5;4.1;2.8
45112;PMS5003;30873;53.908;27.576;2023-08-21T22:15:24;3.3;3.2;2.3
45112;PMS5003;30873;53.908;27.576;2023-08-21T22:21:03;4.5;3.6;2.5
45112;PMS5003;30873;53.908;27.576;2023-08-21T22:25:28;3.8;3.6;2.1
45112;PMS5003;30873;53.908;27.576;2023-08-21T22:30:38;4.1;3.4;2.3
45112;PMS5003;30873;53.908;27.576;2023-08-21T22:36:02;4.3;3.9;2.6
45112;PMS5003;30873;53.908;27.576;2023-08-21T22:41:04;4.2;3.8;2.5
45112;PMS5003;30873;53.908;27.576;2023-08-21T22:45:28;4.1;3.7;2.7
45112;PMS5003;30873;53.908;27.576;2023-08-21T22:50:36;5.2;3.9;2.5
45112;PMS5003;30873;53.908;27.576;2023-08-21T22:55:52;4.3;3.8;2.3
45112;PMS5003;30873;53.908;27.576;2023-08-21T23:00:50;4;3.5;2.5
45112;PMS5003;30873;53.908;27.576;2023-08-21T23:05:38;4.4;4;2.5
45112;PMS5003;30873;53.908;27.576;2023-08-21T23:10:28;4.4;3.7;2.3
45112;PMS5003;30873;53.908;27.576;2023-08-21T23:15:24;4.5;3.7;2.3
45112;PMS5003;30873;53.908;27.576;2023-08-21T23:20:28;4.7;4;2.6
45112;PMS5003;30873;53.908;27.576;2023-08-21T23:25:42;5.1;3.9;2.4
45112;PMS5003;30873;53.908;27.576;2023-08-21T23:31:04;4.5;4.1;2.5
45112;PMS5003;30873;53.908;27.576;2023-08-21T23:35:50;4.4;3.9;3
45112;PMS5003;30873;53.908;27.576;2023-08-21T23:41:02;4.8;3.9;2.8
45112;PMS5003;30873;53.908;27.576;2023-08-21T23:45:40;4;3.6;2.4
45112;PMS5003;30873;53.908;27.576;2023-08-21T23:50:40;5.7;4.5;3
45112;PMS5003;30873;53.908;27.576;2023-08-21T23:56:04;4.6;4.1;2.7
